Time;durP1;ratioP1;P1;durP2;ratioP2;P2;SDS_P1;SDS_P2;PMS_P1;PMS_P2;Temp;Humidity;BMP_temperature;BMP_pressure;BME280_temperature;BME280_humidity;BME280_pressure;Samples;Min_cycle;Max_cycle;Signal;HPM_P1;HPM_P2
2023/06/04 00:00:12;;;;;;;13.45;2.72;;;;;;;;;;5077045;28;20050;-72
2023/06/04 00:02:38;;;;;;;12.95;2.65;;;;;;;;;;5062750;28;20054;-73
2023/06/04 00:05:05;;;;;;;9.70;2.42;;;;;;;;;;5040452;28;20051;-73
2023/06/04 00:07:31;;;;;;;11.73;2.72;;;;;;;;;;5044663;28;20056;-73
2023/06/04 00:09:57;;;;;;;10.05;3.40;;;;;;;;;;5062320;28;20058;-73
2023/06/04 00:12:23;;;;;;;13.07;2.78;;;;;;;;;;5056669;28;20042;-73
2023/06/04 00:14:49;;;;;;;13.68;3.78;;;;;;;;;;5062275;28;20874;-73
2023/06/04 00:17:15;;;;;;;11.77;3.38;;;;;;;;;;5061599;28;20044;-73
2023/06/04 00:19:42;;;;;;;13.27;3.45;;;;;;;;;;5063281;28;20043;-73
2023/06/04 00:22:08;;;;;;;11.80;3.60;;;;;;;;;;5061515;28;20043;-73
2023/06/04 00:24:35;;;;;;;14.70;4.38;;;;;;;;;;5062557;28;20048;-73
2023/06/04 00:27:01;;;;;;;13.52;4.18;;;;;;;;;;5059839;28;20091;-73
2023/06/04 00:29:27;;;;;;;8.80;3.75;;;;;;;;;;5057638;28;20042;-73
2023/06/04 00:31:53;;;;;;;14.82;3.33;;;;;;;;;;5043436;28;20508;-74
2023/06/04 00:34:20;;;;;;;13.88;3.80;;;;;;;;;;5061325;28;20066;-73
2023/06/04 00:36:46;;;;;;;18.40;4.78;;;;;;;;;;5063349;28;20052;-73
2023/06/04 00:39:12;;;;;;;10.27;3.63;;;;;;;;;;5064351;28;20032;-73
2023/06/04 00:41:38;;;;;;;16.58;3.65;;;;;;;;;;5060680;28;20501;-73
2023/06/04 00:44:06;;;;;;;8.27;2.72;;;;;;;;;;5064707;28;20040;-73
2023/06/04 00:46:32;;;;;;;11.75;2.92;;;;;;;;;;5056818;28;20043;-73
2023/06/04 00:48:59;;;;;;;14.30;3.22;;;;;;;;;;5062426;28;20044;-73
2023/06/04 00:51:25;;;;;;;10.38;3.10;;;;;;;;;;5062945;28;20061;-73
2023/06/04 00:53:52;;;;;;;13.25;3.50;;;;;;;;;;5063228;28;20043;-73
2023/06/04 00:56:19;;;;;;;14.43;3.03;;;;;;;;;;5064476;28;20164;-73
2023/06/04 00:58:46;;;;;;;13.43;3.30;;;;;;;;;;5061920;28;20048;-73
2023/06/04 01:01:40;;;;;;;9.40;3.22;;;;;;;;;;5060992;28;20066;-72
2023/06/04 01:04:07;;;;;;;20.40;3.55;;;;;;;;;;5058459;28;20135;-73
2023/06/04 01:06:33;;;;;;;14.85;4.18;;;;;;;;;;5059135;28;20608;-73
2023/06/04 01:09:00;;;;;;;14.27;3.20;;;;;;;;;;5060800;28;20551;-73
2023/06/04 01:11:33;;;;;;;13.20;2.95;;;;;;;;;;5061565;28;20048;-73
2023/06/04 01:13:59;;;;;;;10.90;3.35;;;;;;;;;;5064310;28;20514;-72
2023/06/04 01:16:28;;;;;;;16.17;3.13;;;;;;;;;;5059529;28;20048;-73
2023/06/04 01:18:57;;;;;;;10.60;2.70;;;;;;;;;;5059837;28;20115;-73
2023/06/04 01:21:26;;;;;;;13.65;3.20;;;;;;;;;;5039994;28;20048;-73
2023/06/04 01:24:00;;;;;;;8.18;3.28;;;;;;;;;;5061665;28;20166;-73
2023/06/04 01:26:30;;;;;;;9.02;2.90;;;;;;;;;;5044580;28;20171;-73
2023/06/04 01:28:57;;;;;;;8.32;3.10;;;;;;;;;;5062536;28;20630;-73
2023/06/04 01:31:25;;;;;;;11.70;2.83;;;;;;;;;;5061477;28;20146;-73
2023/06/04 01:33:57;;;;;;;10.30;3.25;;;;;;;;;;5073608;28;20059;-73
2023/06/04 01:36:23;;;;;;;10.57;2.90;;;;;;;;;;5057597;28;20093;-72
2023/06/04 01:38:50;;;;;;;11.10;3.20;;;;;;;;;;5062950;28;20048;-73
2023/06/04 01:41:16;;;;;;;13.68;3.35;;;;;;;;;;5062448;28;20059;-73
2023/06/04 01:43:42;;;;;;;12.13;3.45;;;;;;;;;;5061648;28;20101;-73
2023/06/04 01:46:08;;;;;;;13.50;3.90;;;;;;;;;;5057993;28;20048;-72
2023/06/04 01:48:34;;;;;;;13.35;3.58;;;;;;;;;;5063419;28;20051;-73
2023/06/04 01:51:01;;;;;;;14.50;3.58;;;;;;;;;;5061888;28;20500;-74
2023/06/04 01:53:27;;;;;;;13.00;3.58;;;;;;;;;;5062665;28;20059;-73
2023/06/04 01:55:54;;;;;;;9.88;3.05;;;;;;;;;;5061803;28;20086;-73
2023/06/04 01:58:26;;;;;;;8.65;3.05;;;;;;;;;;5061807;28;20051;-73
2023/06/04 02:00:54;;;;;;;11.57;3.25;;;;;;;;;;5058055;28;20043;-73
2023/06/04 02:03:21;;;;;;;14.73;3.72;;;;;;;;;;5064173;28;20537;-73
2023/06/04 02:05:48;;;;;;;11.50;3.67;;;;;;;;;;5046134;28;21708;-73
2023/06/04 02:08:18;;;;;;;14.57;4.25;;;;;;;;;;5040197;28;20159;-73
2023/06/04 02:10:46;;;;;;;9.80;4.25;;;;;;;;;;5060631;28;20048;-73
2023/06/04 02:13:12;;;;;;;11.20;3.38;;;;;;;;;;5060901;28;20047;-73
2023/06/04 02:15:39;;;;;;;12.63;3.47;;;;;;;;;;5060557;28;20044;-73
2023/06/04 02:18:20;;;;;;;12.27;4.03;;;;;;;;;;5062251;28;20516;-73
2023/06/04 02:20:47;;;;;;;13.32;4.47;;;;;;;;;;5056398;28;20579;-73
2023/06/04 02:23:14;;;;;;;10.45;3.75;;;;;;;;;;5059172;28;20036;-73
2023/06/04 02:25:40;;;;;;;11.93;4.15;;;;;;;;;;5069558;27;20050;-73
2023/06/04 02:28:06;;;;;;;13.73;4.43;;;;;;;;;;5059988;28;20108;-73
2023/06/04 02:30:33;;;;;;;15.93;3.85;;;;;;;;;;5056787;28;20088;-73
2023/06/04 02:33:00;;;;;;;11.52;3.80;;;;;;;;;;5063714;28;20040;-73
2023/06/04 02:35:27;;;;;;;16.73;4.28;;;;;;;;;;5057944;28;20179;-73
2023/06/04 02:37:53;;;;;;;11.90;4.28;;;;;;;;;;5056174;28;20964;-73
2023/06/04 02:40:20;;;;;;;10.07;3.67;;;;;;;;;;5060724;28;20063;-73
2023/06/04 02:42:46;;;;;;;13.57;4.07;;;;;;;;;;5058744;28;20086;-73
2023/06/04 02:45:12;;;;;;;8.73;3.90;;;;;;;;;;5058494;28;20585;-73
2023/06/04 02:47:38;;;;;;;16.38;4.22;;;;;;;;;;5059535;28;20043;-73
2023/06/04 02:50:05;;;;;;;15.07;4.15;;;;;;;;;;5059823;28;20609;-73
2023/06/04 02:52:32;;;;;;;8.93;3.88;;;;;;;;;;5056806;28;20044;-73
2023/06/04 02:54:58;;;;;;;10.32;4.30;;;;;;;;;;5062056;28;20047;-73
2023/06/04 02:57:25;;;;;;;12.80;3.60;;;;;;;;;;5055393;28;20047;-73
2023/06/04 02:59:52;;;;;;;12.93;3.90;;;;;;;;;;5057950;28;20047;-73
2023/06/04 03:02:18;;;;;;;7.65;3.25;;;;;;;;;;5069783;28;20139;-73
2023/06/04 03:04:44;;;;;;;9.13;3.47;;;;;;;;;;5062193;28;20047;-73
2023/06/04 03:07:13;;;;;;;10.65;3.63;;;;;;;;;;5058708;28;20036;-73
2023/06/04 03:09:39;;;;;;;17.98;4.75;;;;;;;;;;5058698;28;20039;-73
2023/06/04 03:12:05;;;;;;;10.40;4.03;;;;;;;;;;5057006;28;20044;-73
2023/06/04 03:14:32;;;;;;;10.93;4.40;;;;;;;;;;5054471;28;22087;-73
2023/06/04 03:17:07;;;;;;;12.82;5.32;;;;;;;;;;5060545;28;20040;-73
2023/06/04 03:19:36;;;;;;;11.77;5.93;;;;;;;;;;5063580;28;20064;-72
2023/06/04 03:22:05;;;;;;;12.70;7.05;;;;;;;;;;5054724;28;20041;-73
2023/06/04 03:24:32;;;;;;;13.70;6.82;;;;;;;;;;5059803;28;20040;-73
2023/06/04 03:26:58;;;;;;;19.25;7.55;;;;;;;;;;5057099;28;20048;-73
2023/06/04 03:29:24;;;;;;;17.27;7.25;;;;;;;;;;5057580;28;20040;-73
2023/06/04 03:31:50;;;;;;;17.48;7.20;;;;;;;;;;5057056;28;20059;-73
2023/06/04 03:34:17;;;;;;;18.60;6.60;;;;;;;;;;5057996;28;20079;-73
2023/06/04 03:36:43;;;;;;;15.75;7.70;;;;;;;;;;5056891;28;20085;-73
2023/06/04 03:39:09;;;;;;;15.05;6.60;;;;;;;;;;5058196;28;20127;-73
2023/06/04 03:41:35;;;;;;;20.10;6.93;;;;;;;;;;5058947;28;20043;-73
2023/06/04 03:44:03;;;;;;;19.42;6.20;;;;;;;;;;5062367;28;20659;-73
2023/06/04 03:46:33;;;;;;;17.40;4.63;;;;;;;;;;5071706;28;20219;-73
2023/06/04 03:48:59;;;;;;;13.93;5.05;;;;;;;;;;5070984;28;20155;-73
2023/06/04 03:51:25;;;;;;;18.63;5.18;;;;;;;;;;5061875;28;20117;-73
2023/06/04 03:53:51;;;;;;;18.08;5.10;;;;;;;;;;5059200;28;20047;-72
2023/06/04 03:56:18;;;;;;;11.88;5.00;;;;;;;;;;5053622;28;20483;-73
2023/06/04 03:58:44;;;;;;;12.82;5.15;;;;;;;;;;5055484;28;20044;-74
2023/06/04 04:01:10;;;;;;;17.83;5.40;;;;;;;;;;5057333;28;20048;-73
2023/06/04 04:03:37;;;;;;;15.93;5.00;;;;;;;;;;5056264;28;20086;-72
2023/06/04 04:06:03;;;;;;;16.00;4.53;;;;;;;;;;5058791;28;20083;-73
2023/06/04 04:08:31;;;;;;;14.05;4.40;;;;;;;;;;5057691;28;20419;-73
2023/06/04 04:11:01;;;;;;;13.45;5.70;;;;;;;;;;5059565;28;20752;-73
2023/06/04 04:13:27;;;;;;;17.27;4.80;;;;;;;;;;5058494;28;20884;-73
2023/06/04 04:15:53;;;;;;;13.75;5.50;;;;;;;;;;5038410;28;21902;-73
2023/06/04 04:18:22;;;;;;;19.08;5.50;;;;;;;;;;5057054;28;20132;-73
2023/06/04 04:20:48;;;;;;;10.95;4.35;;;;;;;;;;5057240;28;21155;-73
2023/06/04 04:23:16;;;;;;;17.00;4.95;;;;;;;;;;5052853;28;21009;-73
2023/06/04 04:25:44;;;;;;;15.57;4.50;;;;;;;;;;5057012;28;20094;-73
2023/06/04 04:28:10;;;;;;;16.92;5.15;;;;;;;;;;5071185;28;20535;-73
2023/06/04 04:30:36;;;;;;;14.45;4.35;;;;;;;;;;5073226;28;20044;-73
2023/06/04 04:33:06;;;;;;;10.13;3.60;;;;;;;;;;5054113;28;20445;-73
2023/06/04 04:35:34;;;;;;;18.80;4.18;;;;;;;;;;5057648;28;22355;-73
2023/06/04 04:38:03;;;;;;;14.15;3.95;;;;;;;;;;5052547;28;20043;-73
2023/06/04 04:40:29;;;;;;;13.23;3.78;;;;;;;;;;5054106;28;20048;-73
2023/06/04 04:42:56;;;;;;;12.07;3.97;;;;;;;;;;5055842;28;20547;-73
2023/06/04 04:45:22;;;;;;;11.18;3.35;;;;;;;;;;5053633;28;20056;-73
2023/06/04 04:47:49;;;;;;;9.90;3.40;;;;;;;;;;5054075;28;20083;-73
2023/06/04 04:50:15;;;;;;;13.13;3.35;;;;;;;;;;5056106;28;20044;-74
2023/06/04 04:52:41;;;;;;;20.98;3.25;;;;;;;;;;5052614;28;20083;-73
2023/06/04 04:55:07;;;;;;;12.45;3.22;;;;;;;;;;5058699;28;20040;-73
2023/06/04 04:57:33;;;;;;;9.80;2.80;;;;;;;;;;5067851;28;20055;-73
2023/06/04 04:59:59;;;;;;;16.58;3.78;;;;;;;;;;5054939;28;21230;-73
2023/06/04 05:02:25;;;;;;;11.55;3.13;;;;;;;;;;5052659;28;20102;-74
2023/06/04 05:04:52;;;;;;;12.13;2.83;;;;;;;;;;5055744;28;20066;-73
2023/06/04 05:07:19;;;;;;;12.80;2.83;;;;;;;;;;5056673;28;20648;-73
2023/06/04 05:09:45;;;;;;;12.63;2.42;;;;;;;;;;5055204;28;20392;-73
2023/06/04 05:12:12;;;;;;;9.00;2.90;;;;;;;;;;5053561;28;20040;-73
2023/06/04 05:14:38;;;;;;;19.08;3.45;;;;;;;;;;5039271;28;20101;-73
2023/06/04 05:17:06;;;;;;;12.48;2.58;;;;;;;;;;5059406;28;20054;-73
2023/06/04 05:19:32;;;;;;;14.38;3.40;;;;;;;;;;5057970;28;20084;-73
2023/06/04 05:22:00;;;;;;;12.13;3.28;;;;;;;;;;5058156;28;20048;-72
2023/06/04 05:24:26;;;;;;;7.30;2.90;;;;;;;;;;5049083;28;20092;-73
2023/06/04 05:26:52;;;;;;;14.30;3.25;;;;;;;;;;5061065;28;20051;-73
2023/06/04 05:29:18;;;;;;;13.00;3.45;;;;;;;;;;5046087;28;20549;-73
2023/06/04 05:31:45;;;;;;;12.38;3.25;;;;;;;;;;5062963;28;20055;-74
2023/06/04 05:34:16;;;;;;;11.63;2.70;;;;;;;;;;5062632;28;20052;-74
2023/06/04 05:36:42;;;;;;;11.18;2.30;;;;;;;;;;5067504;28;20051;-74
2023/06/04 05:39:09;;;;;;;10.15;2.42;;;;;;;;;;5066807;28;20051;-74
2023/06/04 05:41:35;;;;;;;11.82;2.83;;;;;;;;;;5067710;28;20036;-73
2023/06/04 05:44:02;;;;;;;11.25;2.72;;;;;;;;;;5066005;28;20039;-73
2023/06/04 05:46:28;;;;;;;10.70;2.50;;;;;;;;;;5061758;28;20048;-73
2023/06/04 05:48:54;;;;;;;11.48;2.50;;;;;;;;;;5048773;28;20105;-73
2023/06/04 05:51:21;;;;;;;9.80;2.70;;;;;;;;;;5064892;28;20048;-74
2023/06/04 05:53:47;;;;;;;12.00;3.08;;;;;;;;;;5062574;28;20133;-74
2023/06/04 05:56:16;;;;;;;9.75;3.22;;;;;;;;;;5067304;28;20412;-75
2023/06/04 05:58:42;;;;;;;9.52;2.70;;;;;;;;;;5065969;28;20048;-74
2023/06/04 06:01:08;;;;;;;8.63;2.40;;;;;;;;;;5059580;28;20757;-73
2023/06/04 06:03:36;;;;;;;5.32;2.50;;;;;;;;;;5066457;28;20113;-73
2023/06/04 06:06:02;;;;;;;9.48;2.65;;;;;;;;;;5063441;28;20056;-74
2023/06/04 06:08:28;;;;;;;9.57;2.45;;;;;;;;;;5061740;28;20668;-73
2023/06/04 06:10:55;;;;;;;9.70;2.38;;;;;;;;;;5060206;28;20079;-72
2023/06/04 06:13:21;;;;;;;7.20;2.40;;;;;;;;;;5060746;28;20048;-73
2023/06/04 06:15:48;;;;;;;9.48;2.40;;;;;;;;;;5063891;28;20109;-74
2023/06/04 06:18:15;;;;;;;8.07;2.40;;;;;;;;;;5061786;28;20048;-73
2023/06/04 06:20:41;;;;;;;6.28;2.13;;;;;;;;;;5047248;28;20246;-73
2023/06/04 06:23:07;;;;;;;6.20;2.22;;;;;;;;;;5058107;28;21391;-73
2023/06/04 06:25:33;;;;;;;11.95;2.78;;;;;;;;;;5044419;28;20052;-73
2023/06/04 06:28:00;;;;;;;7.57;2.20;;;;;;;;;;5061406;28;20059;-74
2023/06/04 06:30:26;;;;;;;11.23;2.40;;;;;;;;;;5071358;28;21933;-74
2023/06/04 06:32:53;;;;;;;6.68;2.22;;;;;;;;;;5073219;28;20071;-73
2023/06/04 06:35:19;;;;;;;7.30;2.13;;;;;;;;;;5061884;28;20048;-74
2023/06/04 06:37:45;;;;;;;11.75;2.20;;;;;;;;;;5054755;28;20480;-73
2023/06/04 06:40:11;;;;;;;9.20;3.05;;;;;;;;;;5053073;28;20071;-73
2023/06/04 06:42:37;;;;;;;5.85;2.28;;;;;;;;;;5059409;28;20040;-74
2023/06/04 06:45:04;;;;;;;6.72;2.05;;;;;;;;;;5058657;28;20745;-73
2023/06/04 06:47:30;;;;;;;9.50;2.63;;;;;;;;;;5056273;28;20090;-75
2023/06/04 06:49:56;;;;;;;8.30;2.50;;;;;;;;;;5058719;28;20044;-74
2023/06/04 06:52:22;;;;;;;10.25;2.28;;;;;;;;;;5055230;28;20182;-73
2023/06/04 06:54:48;;;;;;;10.50;2.65;;;;;;;;;;5061346;28;20170;-73
2023/06/04 06:57:15;;;;;;;9.05;2.50;;;;;;;;;;5057440;28;20123;-73
2023/06/04 06:59:41;;;;;;;7.70;2.00;;;;;;;;;;5025377;28;20629;-73
2023/06/04 07:02:07;;;;;;;6.55;1.80;;;;;;;;;;5056835;28;20499;-73
2023/06/04 07:04:34;;;;;;;8.18;2.15;;;;;;;;;;5056076;28;20044;-73
2023/06/04 07:07:00;;;;;;;10.93;2.03;;;;;;;;;;5055180;28;20437;-74
2023/06/04 07:09:26;;;;;;;8.02;2.53;;;;;;;;;;5057653;28;20162;-73
2023/06/04 07:11:52;;;;;;;7.90;2.30;;;;;;;;;;5056508;28;20244;-74
2023/06/04 07:14:18;;;;;;;7.32;2.03;;;;;;;;;;5062248;28;20404;-73
2023/06/04 07:16:44;;;;;;;7.53;1.95;;;;;;;;;;5059899;28;20050;-74
2023/06/04 07:19:10;;;;;;;10.07;2.70;;;;;;;;;;5058667;28;20110;-73
2023/06/04 07:21:36;;;;;;;5.50;1.80;;;;;;;;;;5062774;28;20109;-73
2023/06/04 07:24:03;;;;;;;5.80;1.88;;;;;;;;;;5061402;28;20940;-73
2023/06/04 07:26:30;;;;;;;8.20;2.20;;;;;;;;;;5056891;28;20052;-72
2023/06/04 07:28:57;;;;;;;5.15;1.90;;;;;;;;;;5057641;28;20104;-72
2023/06/04 07:31:23;;;;;;;4.35;1.88;;;;;;;;;;5058340;28;20074;-73
2023/06/04 07:33:49;;;;;;;4.15;1.70;;;;;;;;;;5057348;28;20119;-73
2023/06/04 07:36:16;;;;;;;6.57;2.45;;;;;;;;;;5059615;28;20129;-72
2023/06/04 07:38:42;;;;;;;6.38;2.40;;;;;;;;;;5060027;28;20492;-72
2023/06/04 07:41:09;;;;;;;7.90;2.10;;;;;;;;;;5060251;28;20035;-73
2023/06/04 07:43:35;;;;;;;5.95;1.88;;;;;;;;;;5039793;28;20092;-72
2023/06/04 07:46:04;;;;;;;6.05;1.88;;;;;;;;;;5061502;28;20062;-73
2023/06/04 07:48:30;;;;;;;4.85;1.75;;;;;;;;;;5060921;28;20039;-72
2023/06/04 07:50:59;;;;;;;3.08;1.52;;;;;;;;;;5060096;28;20469;-73
2023/06/04 07:53:26;;;;;;;5.72;1.45;;;;;;;;;;5058801;28;20102;-73
2023/06/04 07:55:52;;;;;;;6.40;1.60;;;;;;;;;;5056846;28;20511;-73
2023/06/04 07:58:19;;;;;;;5.05;1.77;;;;;;;;;;5058563;28;20036;-73
2023/06/04 08:00:45;;;;;;;5.82;1.58;;;;;;;;;;5060038;28;20059;-73
2023/06/04 08:03:11;;;;;;;8.65;1.73;;;;;;;;;;5057865;28;20063;-73
2023/06/04 08:05:37;;;;;;;2.65;1.48;;;;;;;;;;5056304;28;20076;-72
2023/06/04 08:08:03;;;;;;;5.15;1.88;;;;;;;;;;5061574;28;20220;-73
2023/06/04 08:10:30;;;;;;;3.38;1.52;;;;;;;;;;5059413;28;20181;-73
2023/06/04 08:12:56;;;;;;;5.07;1.90;;;;;;;;;;5053419;28;20950;-74
2023/06/04 08:15:23;;;;;;;11.48;2.10;;;;;;;;;;5059617;28;21390;-73
2023/06/04 08:17:49;;;;;;;3.00;1.50;;;;;;;;;;5057730;28;20539;-73
2023/06/04 08:20:15;;;;;;;2.55;1.45;;;;;;;;;;5057695;28;20059;-73
2023/06/04 08:22:41;;;;;;;3.20;1.40;;;;;;;;;;5057570;28;20046;-73
2023/06/04 08:25:08;;;;;;;6.43;1.70;;;;;;;;;;5054670;28;20048;-73
2023/06/04 08:27:34;;;;;;;4.35;1.65;;;;;;;;;;5056019;28;20063;-72
2023/06/04 08:30:01;;;;;;;4.78;1.83;;;;;;;;;;5058342;28;20059;-72
2023/06/04 08:32:28;;;;;;;3.72;1.80;;;;;;;;;;5058612;28;20044;-73
2023/06/04 08:34:54;;;;;;;7.07;2.15;;;;;;;;;;5060053;28;20040;-73
2023/06/04 08:37:20;;;;;;;6.35;1.73;;;;;;;;;;5057523;28;20125;-73
2023/06/04 08:39:46;;;;;;;7.72;1.77;;;;;;;;;;5058732;28;20376;-73
2023/06/04 08:42:36;;;;;;;9.38;2.05;;;;;;;;;;5052678;28;20135;-73
2023/06/04 08:45:03;;;;;;;4.55;1.90;;;;;;;;;;5043508;28;20048;-73
2023/06/04 08:47:30;;;;;;;5.00;1.83;;;;;;;;;;5054576;28;20991;-73
2023/06/04 08:49:59;;;;;;;6.50;2.03;;;;;;;;;;5048392;28;20078;-73
2023/06/04 08:52:26;;;;;;;5.15;1.70;;;;;;;;;;5051798;28;20077;-73
2023/06/04 08:54:54;;;;;;;6.18;1.83;;;;;;;;;;5056588;28;20165;-72
2023/06/04 08:57:20;;;;;;;6.22;2.38;;;;;;;;;;5056908;28;20047;-73
2023/06/04 08:59:47;;;;;;;3.45;1.73;;;;;;;;;;5075007;28;20048;-72
2023/06/04 09:02:14;;;;;;;4.03;1.45;;;;;;;;;;5057758;28;20080;-73
2023/06/04 09:04:41;;;;;;;4.82;1.80;;;;;;;;;;5057612;28;20044;-73
2023/06/04 09:07:09;;;;;;;5.53;2.15;;;;;;;;;;5040090;28;20047;-72
2023/06/04 09:09:37;;;;;;;4.28;1.50;;;;;;;;;;5057074;28;20048;-73
2023/06/04 09:12:04;;;;;;;6.35;1.92;;;;;;;;;;5057916;28;20055;-73
2023/06/04 09:14:30;;;;;;;6.72;2.13;;;;;;;;;;5056224;28;20046;-73
2023/06/04 09:16:58;;;;;;;5.65;1.70;;;;;;;;;;5055382;28;22056;-72
2023/06/04 09:19:25;;;;;;;6.63;2.25;;;;;;;;;;5058502;28;20548;-72
2023/06/04 09:21:52;;;;;;;5.28;2.08;;;;;;;;;;5056478;28;20048;-73
2023/06/04 09:24:19;;;;;;;7.40;1.80;;;;;;;;;;5055466;28;20063;-73
2023/06/04 09:26:46;;;;;;;4.70;1.85;;;;;;;;;;5054587;28;20050;-73
2023/06/04 09:29:12;;;;;;;4.35;1.55;;;;;;;;;;5067816;28;20564;-73
2023/06/04 09:31:39;;;;;;;6.78;1.73;;;;;;;;;;5033480;28;20073;-72
2023/06/04 09:34:06;;;;;;;7.05;1.80;;;;;;;;;;5031136;28;20832;-73
2023/06/04 09:36:36;;;;;;;11.18;2.55;;;;;;;;;;5060526;28;20040;-73
2023/06/04 09:39:15;;;;;;;5.25;2.13;;;;;;;;;;5060469;28;20115;-74
2023/06/04 09:41:41;;;;;;;6.53;1.77;;;;;;;;;;5059196;28;20040;-74
2023/06/04 09:44:10;;;;;;;5.18;1.80;;;;;;;;;;5061708;28;20058;-74
2023/06/04 09:46:36;;;;;;;4.10;1.63;;;;;;;;;;5060786;28;20063;-74
2023/06/04 09:49:03;;;;;;;3.92;1.83;;;;;;;;;;5044999;28;20111;-73
2023/06/04 09:51:30;;;;;;;5.35;2.67;;;;;;;;;;5057799;28;20133;-74
2023/06/04 09:54:00;;;;;;;5.63;2.42;;;;;;;;;;5059065;28;20044;-74
2023/06/04 09:56:27;;;;;;;4.22;1.80;;;;;;;;;;5060394;28;20264;-74
2023/06/04 09:59:03;;;;;;;6.22;1.75;;;;;;;;;;5072526;28;20614;-74
2023/06/04 10:01:30;;;;;;;3.50;1.50;;;;;;;;;;5060131;28;20992;-73
2023/06/04 10:03:58;;;;;;;4.40;1.60;;;;;;;;;;5058512;28;20052;-73
2023/06/04 10:06:26;;;;;;;7.97;1.73;;;;;;;;;;5061183;28;20062;-73
2023/06/04 10:08:52;;;;;;;6.60;1.80;;;;;;;;;;5048392;28;20120;-75
2023/06/04 10:11:22;;;;;;;6.10;1.70;;;;;;;;;;5036594;28;20052;-75
2023/06/04 10:13:51;;;;;;;5.38;1.77;;;;;;;;;;5034563;28;20088;-75
2023/06/04 10:16:18;;;;;;;3.17;1.63;;;;;;;;;;5053078;28;20078;-75
2023/06/04 10:18:45;;;;;;;5.18;1.77;;;;;;;;;;5050897;28;20056;-75
2023/06/04 10:21:14;;;;;;;5.05;1.92;;;;;;;;;;5053881;28;20097;-75
2023/06/04 10:23:41;;;;;;;6.10;2.25;;;;;;;;;;5056419;28;20166;-75
2023/06/04 10:26:08;;;;;;;3.50;1.92;;;;;;;;;;5054991;28;20047;-75
2023/06/04 10:28:34;;;;;;;4.03;1.80;;;;;;;;;;5054517;28;20109;-74
2023/06/04 10:31:00;;;;;;;2.83;1.45;;;;;;;;;;5051832;28;20479;-75
2023/06/04 10:33:28;;;;;;;4.90;1.50;;;;;;;;;;5057847;28;20067;-74
2023/06/04 10:35:56;;;;;;;3.53;1.70;;;;;;;;;;5055759;28;20080;-75
2023/06/04 10:38:22;;;;;;;7.47;1.75;;;;;;;;;;5054975;28;20043;-75
2023/06/04 10:40:48;;;;;;;3.78;1.25;;;;;;;;;;5059091;28;20044;-75
2023/06/04 10:43:16;;;;;;;6.70;1.45;;;;;;;;;;5059672;28;20048;-75
2023/06/04 10:45:42;;;;;;;5.88;1.98;;;;;;;;;;5059599;28;20044;-75
2023/06/04 10:48:11;;;;;;;3.67;1.50;;;;;;;;;;5059938;28;20040;-75
2023/06/04 10:50:57;;;;;;;4.90;2.17;;;;;;;;;;5043985;28;20042;-75
2023/06/04 10:53:23;;;;;;;6.47;1.90;;;;;;;;;;5052721;28;22760;-75
2023/06/04 10:55:50;;;;;;;6.07;1.70;;;;;;;;;;5067512;27;20592;-75
2023/06/04 10:58:17;;;;;;;4.85;2.05;;;;;;;;;;5058502;28;20040;-75
2023/06/04 11:00:49;;;;;;;2.95;1.63;;;;;;;;;;5057714;28;20062;-75
2023/06/04 11:03:16;;;;;;;5.25;1.83;;;;;;;;;;5060948;28;20584;-75
2023/06/04 11:05:43;;;;;;;6.15;1.80;;;;;;;;;;5057854;28;20059;-75
2023/06/04 11:08:13;;;;;;;6.45;1.77;;;;;;;;;;5062996;28;20047;-75
2023/06/04 11:10:41;;;;;;;3.63;1.60;;;;;;;;;;5066287;28;21079;-76
2023/06/04 11:13:07;;;;;;;2.92;1.45;;;;;;;;;;5062269;28;20040;-75
2023/06/04 11:15:43;;;;;;;5.38;1.60;;;;;;;;;;5064668;28;20098;-75
2023/06/04 11:18:14;;;;;;;5.63;1.60;;;;;;;;;;5068008;28;20377;-75
2023/06/04 11:20:42;;;;;;;4.43;1.48;;;;;;;;;;5066676;28;20051;-75
2023/06/04 11:23:08;;;;;;;6.25;1.80;;;;;;;;;;5067392;28;20959;-75
2023/06/04 11:25:34;;;;;;;8.80;2.22;;;;;;;;;;5062391;28;20032;-75
2023/06/04 11:28:01;;;;;;;5.75;1.90;;;;;;;;;;5079013;27;20055;-75
2023/06/04 11:30:28;;;;;;;3.80;1.52;;;;;;;;;;5045969;28;20051;-75
2023/06/04 11:33:01;;;;;;;6.68;1.85;;;;;;;;;;5063227;28;20040;-76
2023/06/04 11:35:27;;;;;;;3.97;1.90;;;;;;;;;;5075450;28;20108;-74
2023/06/04 11:37:58;;;;;;;7.03;1.75;;;;;;;;;;5077218;28;20031;-75
2023/06/04 11:40:26;;;;;;;3.70;1.50;;;;;;;;;;5047638;28;20068;-74
2023/06/04 11:42:52;;;;;;;4.05;1.75;;;;;;;;;;5052068;28;20046;-75
2023/06/04 11:45:19;;;;;;;3.65;1.77;;;;;;;;;;5071186;28;20089;-74
2023/06/04 11:47:55;;;;;;;7.38;1.98;;;;;;;;;;5067687;28;20047;-75
2023/06/04 11:50:27;;;;;;;4.57;2.30;;;;;;;;;;5062922;28;20110;-75
2023/06/04 11:52:54;;;;;;;8.48;2.10;;;;;;;;;;5075893;28;20044;-75
2023/06/04 11:55:20;;;;;;;6.95;2.08;;;;;;;;;;5056783;28;20044;-75
2023/06/04 11:57:47;;;;;;;4.85;1.80;;;;;;;;;;5055921;28;20998;-74
2023/06/04 12:00:15;;;;;;;5.13;1.77;;;;;;;;;;5045930;28;20051;-75
2023/06/04 12:02:54;;;;;;;4.95;1.58;;;;;;;;;;5050969;28;20148;-75
2023/06/04 12:05:22;;;;;;;4.80;1.80;;;;;;;;;;5036526;28;20048;-75
2023/06/04 12:07:50;;;;;;;6.88;2.20;;;;;;;;;;5052619;28;20390;-75
2023/06/04 12:10:17;;;;;;;5.25;1.90;;;;;;;;;;5045223;28;20424;-77
2023/06/04 12:12:43;;;;;;;7.60;1.85;;;;;;;;;;5050882;28;20162;-77
2023/06/04 12:15:10;;;;;;;7.50;1.85;;;;;;;;;;5051793;28;20160;-76
2023/06/04 12:17:49;;;;;;;4.43;1.65;;;;;;;;;;5051337;28;20315;-79
2023/06/04 12:20:15;;;;;;;4.38;1.55;;;;;;;;;;5052637;28;20151;-77
2023/06/04 12:22:46;;;;;;;6.72;1.67;;;;;;;;;;5055392;28;20055;-76
2023/06/04 12:25:12;;;;;;;13.73;1.75;;;;;;;;;;5054536;28;20051;-80
2023/06/04 12:27:48;;;;;;;5.93;1.98;;;;;;;;;;5037912;28;21880;-76
2023/06/04 12:30:15;;;;;;;5.35;2.10;;;;;;;;;;5053153;28;20083;-77
2023/06/04 12:32:45;;;;;;;7.53;1.98;;;;;;;;;;5049213;28;20061;-77
2023/06/04 12:35:11;;;;;;;6.32;1.63;;;;;;;;;;5052038;28;20048;-77
2023/06/04 12:37:37;;;;;;;7.30;2.13;;;;;;;;;;5052584;28;20063;-77
2023/06/04 12:40:06;;;;;;;8.50;1.85;;;;;;;;;;5034830;28;20044;-77
2023/06/04 12:42:33;;;;;;;6.88;1.77;;;;;;;;;;5041085;28;20051;-77
2023/06/04 12:44:59;;;;;;;5.43;1.73;;;;;;;;;;5058173;28;20948;-78
2023/06/04 12:47:25;;;;;;;5.80;1.77;;;;;;;;;;5056027;28;20198;-77
2023/06/04 12:49:52;;;;;;;10.75;1.70;;;;;;;;;;5054856;28;20051;-77
2023/06/04 12:52:18;;;;;;;6.35;2.08;;;;;;;;;;5056405;28;20082;-77
2023/06/04 12:54:44;;;;;;;7.95;1.73;;;;;;;;;;5055848;28;20585;-77
2023/06/04 12:57:11;;;;;;;5.80;1.83;;;;;;;;;;5063484;28;20052;-77
2023/06/04 12:59:37;;;;;;;5.25;1.60;;;;;;;;;;5060805;28;20051;-77
2023/06/04 13:02:03;;;;;;;6.20;1.58;;;;;;;;;;5066159;28;20031;-76
2023/06/04 13:04:30;;;;;;;12.38;1.77;;;;;;;;;;5061093;28;20165;-77
2023/06/04 13:06:58;;;;;;;7.35;1.90;;;;;;;;;;5060230;28;20062;-76
2023/06/04 13:09:28;;;;;;;4.35;1.42;;;;;;;;;;5064232;28;20052;-76
2023/06/04 13:11:54;;;;;;;4.78;1.90;;;;;;;;;;5046556;28;20499;-78
2023/06/04 13:14:20;;;;;;;4.90;1.67;;;;;;;;;;5063505;28;20500;-81
2023/06/04 13:16:48;;;;;;;3.80;1.90;;;;;;;;;;5063489;28;20079;-77
2023/06/04 13:19:14;;;;;;;3.75;1.50;;;;;;;;;;5060319;28;20525;-77
2023/06/04 13:21:41;;;;;;;5.13;1.90;;;;;;;;;;5062515;28;20144;-77
2023/06/04 13:24:10;;;;;;;5.00;1.40;;;;;;;;;;5063517;28;20048;-78
2023/06/04 13:26:38;;;;;;;6.40;1.80;;;;;;;;;;5063059;28;20508;-77
2023/06/04 13:29:04;;;;;;;6.20;1.40;;;;;;;;;;5063942;28;20066;-77
2023/06/04 13:31:30;;;;;;;3.92;1.65;;;;;;;;;;5058956;28;20791;-77
2023/06/04 13:33:56;;;;;;;4.97;1.90;;;;;;;;;;5060045;28;20052;-77
2023/06/04 13:36:23;;;;;;;6.28;1.65;;;;;;;;;;5055741;28;20055;-77
2023/06/04 13:38:49;;;;;;;6.57;1.60;;;;;;;;;;5041105;28;20051;-77
2023/06/04 13:41:15;;;;;;;4.55;1.80;;;;;;;;;;5057587;28;20044;-77
2023/06/04 13:43:41;;;;;;;7.03;1.75;;;;;;;;;;5056381;28;20055;-78
2023/06/04 13:46:07;;;;;;;4.57;1.58;;;;;;;;;;5057621;28;21944;-78
2023/06/04 13:48:33;;;;;;;4.63;1.30;;;;;;;;;;5056651;28;20044;-77
2023/06/04 13:50:59;;;;;;;5.35;1.80;;;;;;;;;;5042524;28;20133;-77
2023/06/04 13:53:25;;;;;;;4.55;1.65;;;;;;;;;;5041105;28;20043;-77
2023/06/04 13:55:57;;;;;;;4.88;1.85;;;;;;;;;;5056373;28;20036;-77
2023/06/04 13:58:23;;;;;;;4.93;1.90;;;;;;;;;;5040574;28;21659;-77
2023/06/04 14:00:50;;;;;;;4.32;2.28;;;;;;;;;;5062680;28;20162;-77
2023/06/04 14:03:16;;;;;;;5.47;1.60;;;;;;;;;;5061779;28;20056;-77
2023/06/04 14:05:42;;;;;;;4.32;1.60;;;;;;;;;;5061465;28;20632;-77
2023/06/04 14:08:08;;;;;;;4.80;1.80;;;;;;;;;;5061787;28;20076;-77
2023/06/04 14:10:35;;;;;;;5.93;1.73;;;;;;;;;;5054865;28;20134;-77
2023/06/04 14:13:02;;;;;;;4.82;1.88;;;;;;;;;;5058592;28;20649;-78
2023/06/04 14:15:28;;;;;;;3.50;1.90;;;;;;;;;;5062651;28;20428;-78
2023/06/04 14:17:54;;;;;;;7.88;1.77;;;;;;;;;;5059385;28;21596;-78
2023/06/04 14:20:20;;;;;;;4.50;1.80;;;;;;;;;;5065420;28;20036;-78
2023/06/04 14:22:46;;;;;;;9.18;1.85;;;;;;;;;;5069616;28;20043;-77
2023/06/04 14:25:13;;;;;;;6.20;2.13;;;;;;;;;;5069974;28;20186;-79
2023/06/04 14:27:39;;;;;;;3.20;1.77;;;;;;;;;;5065864;28;20103;-78
2023/06/04 14:30:05;;;;;;;8.40;2.20;;;;;;;;;;5049154;28;21670;-78
2023/06/04 14:32:33;;;;;;;3.83;1.60;;;;;;;;;;5067507;28;20144;-77
2023/06/04 14:34:59;;;;;;;5.68;1.65;;;;;;;;;;5050689;28;20040;-78
2023/06/04 14:37:26;;;;;;;6.00;1.80;;;;;;;;;;5066749;28;20052;-77